Time;durP1;ratioP1;P1;durP2;ratioP2;P2;SDS_P1;SDS_P2;PMS_P1;PMS_P2;Temp;Humidity;BMP_temperature;BMP_pressure;BME280_temperature;BME280_humidity;BME280_pressure;Samples;Min_cycle;Max_cycle;Signal;HPM_P1;HPM_P2
2022/06/17 00:00:30;;;;;;;2.73;1.53;;;16.10;91.70;;;;;;5013024;28;20497;-94
2022/06/17 00:02:56;;;;;;;7.75;2.38;;;16.00;91.90;;;;;;5011424;28;20276;-94
2022/06/17 00:05:21;;;;;;;3.05;1.55;;;16.00;92.00;;;;;;5012015;28;20030;-94
2022/06/17 00:07:48;;;;;;;4.18;1.70;;;15.90;92.30;;;;;;5012031;28;20039;-95
2022/06/17 00:10:24;;;;;;;3.10;1.60;;;15.80;92.60;;;;;;5012759;28;20030;-95
2022/06/17 00:12:51;;;;;;;3.83;1.70;;;15.80;92.90;;;;;;5012285;28;20181;-96
2022/06/17 00:15:32;;;;;;;3.65;1.50;;;15.70;93.00;;;;;;5027819;28;20026;-94
2022/06/17 00:17:58;;;;;;;6.45;1.73;;;15.70;93.40;;;;;;5028363;28;20057;-92
2022/06/17 00:20:26;;;;;;;5.78;1.90;;;15.60;93.50;;;;;;5010939;28;20034;-94
2022/06/17 00:22:54;;;;;;;5.95;2.22;;;15.60;93.60;;;;;;5027379;28;20038;-94
2022/06/17 00:25:28;;;;;;;3.08;1.60;;;15.60;93.90;;;;;;5028768;28;20038;-93
2022/06/17 00:27:57;;;;;;;3.63;1.50;;;15.60;94.00;;;;;;5010589;28;20116;-94
2022/06/17 00:30:25;;;;;;;3.25;1.80;;;15.60;94.20;;;;;;5010122;28;20088;-95
2022/06/17 00:32:55;;;;;;;3.90;1.80;;;15.60;94.20;;;;;;5012558;28;20021;-95
2022/06/17 00:35:23;;;;;;;4.25;1.88;;;15.50;94.40;;;;;;5026621;28;20034;-93
2022/06/17 00:37:50;;;;;;;2.65;1.67;;;15.50;94.70;;;;;;5025594;28;20030;-95
2022/06/17 00:40:21;;;;;;;3.03;1.63;;;15.50;95.00;;;;;;5010883;28;20094;-96
2022/06/17 00:42:50;;;;;;;3.15;1.83;;;15.40;95.00;;;;;;5010288;28;20031;-94
2022/06/17 00:45:40;;;;;;;3.30;1.60;;;15.50;94.90;;;;;;5008240;28;20348;-93
2022/06/17 00:48:25;;;;;;;3.60;1.50;;;15.40;95.10;;;;;;5006696;28;20034;-95
2022/06/17 00:51:15;;;;;;;5.07;1.80;;;15.40;95.30;;;;;;5007146;28;20049;-93
2022/06/17 00:53:58;;;;;;;3.45;1.50;;;15.40;95.40;;;;;;5007421;28;20100;-95
2022/06/17 00:56:32;;;;;;;3.72;1.80;;;15.30;96.10;;;;;;5004387;28;20031;-94
2022/06/17 00:59:13;;;;;;;3.80;1.80;;;15.20;95.60;;;;;;5024320;28;20041;-95
2022/06/17 01:01:48;;;;;;;5.22;2.45;;;15.10;96.00;;;;;;5008175;28;20034;-95
2022/06/17 01:04:23;;;;;;;6.25;1.70;;;15.00;96.50;;;;;;5029138;28;20090;-94
2022/06/17 01:06:55;;;;;;;7.50;2.28;;;15.00;96.90;;;;;;5006028;28;20382;-94
2022/06/17 01:12:24;;;;;;;4.30;1.67;;;15.00;97.30;;;;;;5025602;28;20536;-94
2022/06/17 01:14:51;;;;;;;2.25;1.42;;;14.90;97.80;;;;;;5007567;28;20061;-94
2022/06/17 01:17:18;;;;;;;7.95;1.70;;;14.80;98.00;;;;;;5009491;28;20022;-95
2022/06/17 01:19:52;;;;;;;2.83;1.30;;;14.80;98.00;;;;;;5006730;28;20108;-95
2022/06/17 01:22:27;;;;;;;2.60;1.48;;;14.80;98.60;;;;;;5026164;28;20034;-94
2022/06/17 01:25:30;;;;;;;4.25;1.55;;;14.70;98.90;;;;;;5026792;28;20018;-95
2022/06/17 01:28:00;;;;;;;4.70;1.70;;;14.70;99.60;;;;;;5020451;28;20042;-96
2022/06/17 01:30:40;;;;;;;4.43;1.80;;;14.60;99.70;;;;;;5029550;28;20038;-96
2022/06/17 01:33:21;;;;;;;5.03;1.55;;;14.60;99.90;;;;;;5010403;28;20022;-95
2022/06/17 01:35:55;;;;;;;3.88;1.45;;;14.40;99.90;;;;;;5009560;28;20058;-94
2022/06/17 01:38:23;;;;;;;3.03;1.70;;;14.40;99.90;;;;;;5025983;28;20085;-95
2022/06/17 01:40:54;;;;;;;4.13;1.70;;;14.30;99.90;;;;;;5012013;28;20479;-96
2022/06/17 01:43:31;;;;;;;1.70;1.30;;;14.20;99.90;;;;;;5007254;28;20038;-95
2022/06/17 01:46:05;;;;;;;2.60;1.80;;;14.20;99.90;;;;;;5022895;28;20030;-96
2022/06/17 01:48:35;;;;;;;2.97;1.67;;;14.20;99.90;;;;;;5007676;28;20038;-95
2022/06/17 01:51:04;;;;;;;5.43;1.88;;;14.10;99.90;;;;;;5007993;28;20086;-95
2022/06/17 01:53:33;;;;;;;4.15;2.13;;;14.10;99.90;;;;;;5006295;28;20121;-95
2022/06/17 01:56:09;;;;;;;3.60;1.70;;;14.20;99.90;;;;;;5020805;28;20437;-95
2022/06/17 01:59:00;;;;;;;3.97;1.70;;;14.20;99.90;;;;;;5003615;28;20057;-93
2022/06/17 02:01:31;;;;;;;2.80;1.67;;;14.20;99.90;;;;;;5000770;28;20026;-96
2022/06/17 02:04:10;;;;;;;4.93;2.42;;;14.20;99.90;;;;;;5020906;28;20031;-96
2022/06/17 02:07:02;;;;;;;3.25;1.67;;;14.20;99.90;;;;;;5003603;28;20045;-95
2022/06/17 02:09:37;;;;;;;4.93;1.55;;;14.10;99.90;;;;;;5001663;28;20030;-96
2022/06/17 02:12:29;;;;;;;3.65;1.80;;;14.10;99.90;;;;;;5015043;28;20038;-94
2022/06/17 02:15:02;;;;;;;5.05;1.75;;;14.20;99.90;;;;;;5002204;28;20097;-95
2022/06/17 02:17:49;;;;;;;5.35;1.95;;;14.20;99.90;;;;;;5012036;28;20030;-94
2022/06/17 02:20:30;;;;;;;3.78;1.67;;;14.30;99.90;;;;;;5009078;28;20038;-96
2022/06/17 02:23:01;;;;;;;3.80;1.98;;;14.30;99.90;;;;;;5010715;28;20030;-95
2022/06/17 02:25:54;;;;;;;4.78;2.00;;;14.20;99.90;;;;;;5005270;28;20026;-95
2022/06/17 02:28:22;;;;;;;3.13;1.70;;;14.30;99.90;;;;;;5010036;28;20044;-95
2022/06/17 02:30:51;;;;;;;5.22;1.90;;;14.30;99.90;;;;;;5006073;28;20042;-95
2022/06/17 02:33:20;;;;;;;4.22;2.30;;;14.20;99.90;;;;;;5027509;28;20003;-95
2022/06/17 02:39:45;;;;;;;6.35;1.70;;;14.10;99.90;;;;;;5032939;28;20049;-95
2022/06/17 02:42:32;;;;;;;5.22;1.85;;;14.10;99.90;;;;;;5028946;28;20034;-94
2022/06/17 02:45:20;;;;;;;4.85;1.80;;;14.10;99.90;;;;;;5030296;28;20474;-96
2022/06/17 02:50:21;;;;;;;3.55;2.10;;;14.10;99.90;;;;;;5009268;28;20304;-84
2022/06/17 02:52:48;;;;;;;3.70;1.50;;;14.00;99.90;;;;;;5028687;28;20030;-83
2022/06/17 02:55:38;;;;;;;2.72;1.77;;;13.90;99.90;;;;;;5028297;28;20026;-85
2022/06/17 02:58:23;;;;;;;6.55;2.22;;;13.90;99.90;;;;;;5008543;28;20065;-83
2022/06/17 03:00:50;;;;;;;9.95;2.05;;;13.80;99.90;;;;;;4993048;28;20062;-84
2022/06/17 03:03:19;;;;;;;2.95;2.20;;;13.70;99.90;;;;;;5008751;28;20065;-83
2022/06/17 03:05:52;;;;;;;5.47;2.38;;;13.70;99.90;;;;;;4993601;28;20065;-83
2022/06/17 03:08:22;;;;;;;5.20;2.20;;;13.70;99.90;;;;;;4993358;28;20045;-81
2022/06/17 03:10:50;;;;;;;4.80;1.90;;;13.70;99.90;;;;;;5012022;28;20050;-85
2022/06/17 03:13:54;;;;;;;6.53;1.95;;;13.70;99.90;;;;;;5005885;28;20045;-83
2022/06/17 03:16:24;;;;;;;4.28;2.60;;;13.70;99.90;;;;;;5002859;28;20561;-83
2022/06/17 03:18:51;;;;;;;8.80;2.53;;;13.70;99.90;;;;;;4984425;28;20143;-83
2022/06/17 03:21:23;;;;;;;6.60;2.25;;;14.00;99.90;;;;;;4969129;28;20029;-83
2022/06/17 03:24:12;;;;;;;5.25;2.10;;;14.00;99.90;;;;;;4970249;28;20034;-83
2022/06/17 03:27:05;;;;;;;7.80;2.40;;;14.10;99.90;;;;;;4986020;28;20256;-83
2022/06/17 03:29:33;;;;;;;4.28;1.70;;;14.00;99.90;;;;;;4953767;28;20039;-84
2022/06/17 03:32:26;;;;;;;7.25;2.13;;;13.90;99.90;;;;;;4971624;28;20034;-82
2022/06/17 03:34:54;;;;;;;5.88;1.90;;;13.70;99.90;;;;;;4971430;28;20066;-84
2022/06/17 03:37:20;;;;;;;4.25;2.17;;;13.60;99.90;;;;;;4987684;28;20042;-85
2022/06/17 03:40:03;;;;;;;5.25;2.20;;;13.50;99.90;;;;;;4987632;28;20023;-85
2022/06/17 03:42:47;;;;;;;7.97;2.17;;;13.50;99.90;;;;;;4971794;28;20065;-84
2022/06/17 03:45:20;;;;;;;4.53;1.75;;;13.50;99.90;;;;;;4987609;28;20035;-84
2022/06/17 03:47:53;;;;;;;3.50;1.75;;;13.40;99.90;;;;;;4971764;28;20030;-84
2022/06/17 03:50:42;;;;;;;7.20;2.50;;;13.40;99.90;;;;;;4988451;28;20030;-84
2022/06/17 03:53:24;;;;;;;6.93;2.03;;;13.50;99.90;;;;;;4988325;28;20022;-82
2022/06/17 03:55:52;;;;;;;7.95;2.40;;;13.50;99.90;;;;;;4988182;28;20122;-82
2022/06/17 03:58:19;;;;;;;5.43;2.30;;;13.60;99.90;;;;;;4971503;28;20129;-83
2022/06/17 04:01:16;;;;;;;6.93;2.58;;;13.50;99.90;;;;;;4973605;28;20027;-82
2022/06/17 04:04:00;;;;;;;4.32;2.35;;;13.60;99.90;;;;;;4971884;28;20042;-83
2022/06/17 04:06:39;;;;;;;7.72;2.33;;;13.60;99.90;;;;;;4971504;28;20039;-83
2022/06/17 04:09:17;;;;;;;3.88;2.20;;;13.60;99.90;;;;;;4972593;28;20041;-82
2022/06/17 04:11:46;;;;;;;2.35;1.80;;;13.60;99.90;;;;;;4989103;28;20066;-83
2022/06/17 04:14:23;;;;;;;9.27;2.83;;;13.70;99.90;;;;;;4975446;28;20487;-83
2022/06/17 04:16:50;;;;;;;6.72;2.63;;;13.80;99.90;;;;;;4989737;28;20581;-83
2022/06/17 04:19:19;;;;;;;8.48;2.35;;;13.90;99.90;;;;;;4988999;28;20214;-84
2022/06/17 04:21:51;;;;;;;9.40;3.10;;;14.10;99.90;;;;;;4973928;28;20034;-83
2022/06/17 04:24:25;;;;;;;5.60;2.08;;;14.20;99.90;;;;;;4988406;28;20026;-82
2022/06/17 04:27:18;;;;;;;4.75;2.20;;;14.30;99.90;;;;;;4973509;28;20498;-83
2022/06/17 04:29:48;;;;;;;3.00;2.20;;;14.40;99.90;;;;;;4988474;28;20038;-82
2022/06/17 04:32:20;;;;;;;4.07;2.38;;;14.40;99.90;;;;;;4974952;28;20030;-82
2022/06/17 04:34:47;;;;;;;3.95;2.50;;;14.40;99.90;;;;;;4972729;28;20119;-83
2022/06/17 04:37:23;;;;;;;5.75;2.03;;;14.40;99.90;;;;;;4974444;28;20031;-83
2022/06/17 04:40:04;;;;;;;3.78;2.30;;;14.40;99.90;;;;;;4975720;28;20066;-83
2022/06/17 04:42:43;;;;;;;3.35;2.20;;;14.50;99.90;;;;;;4974960;28;20060;-83
2022/06/17 04:45:19;;;;;;;12.57;2.53;;;14.50;99.90;;;;;;4974023;28;20452;-84
2022/06/17 04:47:49;;;;;;;7.88;2.45;;;14.50;99.90;;;;;;4990709;28;20038;-83
2022/06/17 04:50:23;;;;;;;4.82;2.22;;;14.60;99.90;;;;;;4975225;28;20041;-82
2022/06/17 04:52:54;;;;;;;8.88;2.40;;;14.70;99.90;;;;;;4975235;28;20089;-83
2022/06/17 04:55:41;;;;;;;3.45;2.13;;;14.70;99.90;;;;;;4977607;28;20062;-83
2022/06/17 04:58:25;;;;;;;4.45;2.17;;;14.70;99.90;;;;;;4992511;28;20031;-83
2022/06/17 05:00:56;;;;;;;6.57;2.28;;;14.70;99.90;;;;;;4976924;28;20035;-82
2022/06/17 05:03:31;;;;;;;7.20;2.97;;;14.70;99.90;;;;;;4977445;28;20042;-83
2022/06/17 05:06:14;;;;;;;18.60;8.90;;;14.80;99.90;;;;;;4989659;28;20029;-82
2022/06/17 05:08:59;;;;;;;19.48;9.93;;;14.90;99.90;;;;;;4980245;28;20057;-82
2022/06/17 05:11:33;;;;;;;4.90;2.88;;;15.00;99.90;;;;;;4977483;28;20085;-82
2022/06/17 05:14:04;;;;;;;4.72;3.08;;;15.10;99.90;;;;;;4976897;28;20058;-82
2022/06/17 05:20:22;;;;;;;3.53;2.22;;;15.20;99.90;;;;;;4993080;28;20041;-82
2022/06/17 05:22:56;;;;;;;6.50;2.40;;;15.40;99.90;;;;;;4994829;28;20533;-82
2022/06/17 05:25:33;;;;;;;5.30;1.85;;;15.60;99.90;;;;;;5009674;28;20030;-82
2022/06/17 05:27:59;;;;;;;3.50;2.17;;;15.80;99.90;;;;;;5013115;28;20442;-82
2022/06/17 05:30:30;;;;;;;6.65;2.05;;;15.90;99.90;;;;;;4995589;28;20022;-82
2022/06/17 05:32:56;;;;;;;7.28;2.33;;;16.00;99.90;;;;;;4983702;28;20128;-83
2022/06/17 05:35:23;;;;;;;10.73;3.03;;;16.10;99.90;;;;;;5019977;28;20066;-83
2022/06/17 05:37:50;;;;;;;4.82;1.67;;;16.30;99.90;;;;;;5023119;28;20032;-82
2022/06/17 05:40:17;;;;;;;7.22;2.00;;;16.40;99.90;;;;;;5008061;28;20117;-84
2022/06/17 05:42:44;;;;;;;2.53;2.00;;;16.60;99.90;;;;;;4992394;28;20117;-82
2022/06/17 05:45:21;;;;;;;6.00;2.00;;;16.70;99.90;;;;;;4997672;28;20048;-82
2022/06/17 05:48:13;;;;;;;4.43;1.95;;;16.80;99.90;;;;;;4994713;28;20031;-82
2022/06/17 05:51:04;;;;;;;4.13;2.13;;;16.90;99.90;;;;;;4996066;28;20922;-83
2022/06/17 05:53:46;;;;;;;8.23;2.22;;;17.00;99.90;;;;;;4994537;28;20026;-83
2022/06/17 05:56:25;;;;;;;4.97;1.90;;;17.10;99.90;;;;;;4978547;28;20076;-82
2022/06/17 05:58:51;;;;;;;5.07;2.20;;;17.20;99.90;;;;;;4982160;28;20030;-82
2022/06/17 06:01:16;;;;;;;9.07;2.25;;;17.30;99.90;;;;;;4997457;28;20022;-82
2022/06/17 06:03:42;;;;;;;4.13;1.88;;;17.30;99.90;;;;;;4969210;28;20034;-82
2022/06/17 06:06:08;;;;;;;4.22;1.95;;;17.30;99.90;;;;;;5005702;28;20462;-83
2022/06/17 06:08:37;;;;;;;7.78;2.00;;;17.30;99.90;;;;;;4973271;28;20031;-83
2022/06/17 06:11:06;;;;;;;4.13;1.77;;;17.30;99.90;;;;;;4989245;28;20031;-83
2022/06/17 06:13:36;;;;;;;4.93;2.25;;;17.40;99.90;;;;;;4985132;28;20037;-82
2022/06/17 06:16:03;;;;;;;6.00;2.28;;;17.50;99.90;;;;;;4974310;28;20785;-81
2022/06/17 06:19:01;;;;;;;5.55;1.77;;;17.50;99.90;;;;;;4990417;28;20034;-82
2022/06/17 06:21:27;;;;;;;4.47;2.13;;;17.70;99.90;;;;;;5001150;28;20049;-83
2022/06/17 06:23:56;;;;;;;4.20;2.20;;;17.80;99.90;;;;;;4988740;28;20042;-82
2022/06/17 06:26:27;;;;;;;6.05;2.38;;;17.80;99.90;;;;;;4982132;28;20058;-82
2022/06/17 06:29:15;;;;;;;4.85;1.90;;;17.90;99.90;;;;;;5006542;28;20034;-83
2022/06/17 06:31:40;;;;;;;3.20;2.00;;;18.10;99.90;;;;;;4980726;28;20034;-82
2022/06/17 06:34:17;;;;;;;3.90;2.00;;;18.20;99.90;;;;;;4984214;28;20023;-82
2022/06/17 06:36:46;;;;;;;3.70;2.40;;;18.40;99.90;;;;;;4988500;28;20078;-82
2022/06/17 06:39:13;;;;;;;6.20;2.50;;;18.50;99.90;;;;;;4999598;28;20089;-83
2022/06/17 06:41:39;;;;;;;6.50;2.25;;;18.60;99.90;;;;;;4999046;28;20025;-82
2022/06/17 06:44:06;;;;;;;4.35;2.15;;;18.70;99.90;;;;;;5015433;28;20053;-83
2022/06/17 06:46:50;;;;;;;3.88;2.05;;;18.80;99.90;;;;;;5016346;28;20363;-83
2022/06/17 06:49:25;;;;;;;4.85;2.13;;;19.00;99.90;;;;;;4996575;28;20057;-83
2022/06/17 06:51:54;;;;;;;2.97;2.00;;;19.10;99.90;;;;;;4998052;28;20027;-83
2022/06/17 06:54:22;;;;;;;6.93;1.73;;;19.10;99.90;;;;;;4998561;28;20113;-82
2022/06/17 06:56:50;;;;;;;7.72;2.30;;;19.20;99.90;;;;;;4997603;28;20068;-83
2022/06/17 06:59:15;;;;;;;5.18;2.00;;;19.40;99.90;;;;;;4996824;28;20026;-82
2022/06/17 07:01:42;;;;;;;3.38;2.30;;;19.50;99.90;;;;;;5012978;28;20094;-83
2022/06/17 07:04:07;;;;;;;4.55;2.75;;;19.70;99.90;;;;;;5002999;28;20487;-83
2022/06/17 07:06:35;;;;;;;3.40;1.90;;;19.90;99.90;;;;;;5028538;28;20044;-83
2022/06/17 07:09:00;;;;;;;2.05;1.75;;;20.30;99.90;;;;;;5017049;28;20049;-82
2022/06/17 07:11:26;;;;;;;8.65;2.35;;;21.20;99.40;;;;;;5014990;28;20025;-82
2022/06/17 07:13:52;;;;;;;5.32;2.17;;;22.00;95.90;;;;;;4984422;28;20084;-82
2022/06/17 07:16:18;;;;;;;3.70;1.60;;;22.60;95.70;;;;;;5010442;28;20018;-82
2022/06/17 07:18:43;;;;;;;3.33;1.90;;;23.30;93.80;;;;;;5012006;28;20582;-82
2022/06/17 07:21:17;;;;;;;6.13;1.85;;;24.20;92.20;;;;;;5011796;28;20117;-83
2022/06/17 07:23:45;;;;;;;3.20;1.83;;;25.30;89.70;;;;;;4978161;28;20080;-82
2022/06/17 07:26:17;;;;;;;6.10;1.85;;;26.10;85.80;;;;;;4994945;28;20092;-82
2022/06/17 07:28:44;;;;;;;7.53;1.90;;;26.70;82.20;;;;;;4994803;28;20046;-84
2022/06/17 07:31:11;;;;;;;1.95;1.75;;;26.60;79.80;;;;;;4987842;28;20080;-82
2022/06/17 07:33:37;;;;;;;5.28;2.30;;;26.60;76.20;;;;;;4991670;28;20064;-82
2022/06/17 07:36:05;;;;;;;12.50;1.77;;;26.20;78.00;;;;;;4990963;28;20109;-82
2022/06/17 07:41:24;;;;;;;4.15;1.80;;;27.30;73.30;;;;;;5007266;28;20506;-82
2022/06/17 07:43:51;;;;;;;4.60;1.92;;;26.90;72.90;;;;;;4991561;28;20038;-82
2022/06/17 07:46:18;;;;;;;6.40;1.70;;;25.80;73.60;;;;;;4992950;28;20094;-82
2022/06/17 07:48:46;;;;;;;2.63;1.70;;;24.80;75.70;;;;;;5009213;28;20070;-82
2022/06/17 07:51:12;;;;;;;3.85;2.40;;;24.10;79.10;;;;;;4993225;28;20502;-82
2022/06/17 07:53:42;;;;;;;8.80;2.40;;;23.50;80.40;;;;;;4993706;28;20030;-82
2022/06/17 07:56:13;;;;;;;5.75;1.98;;;22.90;82.60;;;;;;5008484;28;20034;-83
2022/06/17 07:58:39;;;;;;;8.30;2.00;;;22.70;84.50;;;;;;4993229;28;20027;-82
2022/06/17 08:01:06;;;;;;;7.00;1.88;;;23.50;84.00;;;;;;4989034;28;20049;-83
2022/06/17 08:03:34;;;;;;;5.07;2.03;;;25.30;80.70;;;;;;4977257;28;20026;-83
2022/06/17 08:06:02;;;;;;;1.75;1.42;;;27.00;76.40;;;;;;4995672;28;20386;-82
2022/06/17 08:08:28;;;;;;;2.85;1.63;;;28.40;69.80;;;;;;4996915;28;20448;-83
2022/06/17 08:10:57;;;;;;;7.22;1.85;;;29.40;65.40;;;;;;5011609;28;20034;-83
2022/06/17 08:13:30;;;;;;;4.90;1.50;;;29.80;63.20;;;;;;4996399;28;20150;-82
2022/06/17 08:16:07;;;;;;;3.15;1.70;;;30.30;59.80;;;;;;5011808;28;20023;-83
2022/06/17 08:18:34;;;;;;;2.42;1.40;;;30.50;57.50;;;;;;4999436;28;20022;-83
2022/06/17 08:21:00;;;;;;;8.18;1.73;;;30.90;57.60;;;;;;5014050;28;20030;-83
2022/06/17 08:23:26;;;;;;;2.65;1.77;;;31.40;59.60;;;;;;4997961;28;20026;-84
2022/06/17 08:25:52;;;;;;;2.70;1.55;;;31.00;58.50;;;;;;5000530;28;20026;-84
2022/06/17 08:28:19;;;;;;;2.05;1.20;;;29.90;59.30;;;;;;4997741;28;20184;-84
2022/06/17 08:30:47;;;;;;;3.08;1.65;;;29.30;58.80;;;;;;4994631;28;20045;-84
2022/06/17 08:33:14;;;;;;;4.57;1.40;;;29.50;60.00;;;;;;5014596;28;20030;-83
2022/06/17 08:35:43;;;;;;;3.53;1.45;;;29.50;59.80;;;;;;4998740;28;20034;-84
2022/06/17 08:38:19;;;;;;;8.15;1.85;;;29.30;59.70;;;;;;4999080;28;20525;-83
2022/06/17 08:40:53;;;;;;;1.60;1.30;;;29.60;58.80;;;;;;4999267;28;20030;-83
2022/06/17 08:43:30;;;;;;;4.95;1.70;;;30.50;58.50;;;;;;4998480;28;20086;-84
2022/06/17 08:46:16;;;;;;;3.53;1.60;;;31.00;58.50;;;;;;4980897;28;20073;-83
2022/06/17 08:49:20;;;;;;;3.13;1.30;;;31.10;57.30;;;;;;4997817;28;20084;-83
2022/06/17 08:51:48;;;;;;;2.42;1.77;;;30.90;56.90;;;;;;4978809;28;20138;-83
2022/06/17 08:54:35;;;;;;;15.15;3.33;;;30.90;56.80;;;;;;5009571;28;20030;-83
2022/06/17 08:57:09;;;;;;;8.65;1.92;;;30.50;56.40;;;;;;4992984;28;20049;-83
2022/06/17 08:59:45;;;;;;;2.28;1.63;;;31.00;54.90;;;;;;5001841;28;20030;-82
2022/06/17 09:02:27;;;;;;;4.20;2.03;;;31.30;54.60;;;;;;4990250;28;20120;-83
2022/06/17 09:05:14;;;;;;;5.35;1.60;;;30.90;54.90;;;;;;4997822;28;20034;-83
2022/06/17 09:07:58;;;;;;;6.40;1.73;;;30.40;56.20;;;;;;4997093;28;20034;-84
2022/06/17 09:10:40;;;;;;;4.28;1.50;;;30.00;56.60;;;;;;4981301;28;20034;-83
2022/06/17 09:13:30;;;;;;;7.03;2.05;;;30.20;56.00;;;;;;4996969;28;20561;-83
2022/06/17 09:16:25;;;;;;;2.83;1.50;;;31.10;56.50;;;;;;4995067;28;20111;-82
2022/06/17 09:18:59;;;;;;;2.45;1.52;;;30.50;54.40;;;;;;4979903;28;20365;-82
2022/06/17 09:21:47;;;;;;;4.65;1.60;;;29.60;56.30;;;;;;4998299;28;20432;-83
2022/06/17 09:24:22;;;;;;;4.25;1.60;;;29.50;55.90;;;;;;4995030;28;20479;-83
2022/06/17 09:26:56;;;;;;;3.75;1.75;;;29.50;57.20;;;;;;5000788;28;20135;-87
2022/06/17 09:29:57;;;;;;;3.70;1.70;;;29.80;56.60;;;;;;4992033;28;20045;-84
2022/06/17 09:32:36;;;;;;;4.80;2.10;;;29.90;57.50;;;;;;4979505;28;20583;-84
2022/06/17 09:35:30;;;;;;;10.52;2.10;;;29.70;57.00;;;;;;4992150;28;20559;-83
2022/06/17 09:38:08;;;;;;;3.47;1.58;;;29.40;57.40;;;;;;5026260;28;20030;-83
2022/06/17 09:40:38;;;;;;;5.30;1.60;;;29.90;57.70;;;;;;5008670;28;20058;-83
2022/06/17 09:43:13;;;;;;;7.93;1.83;;;30.80;55.90;;;;;;5012309;28;20014;-83
2022/06/17 09:46:08;;;;;;;7.32;1.77;;;31.00;55.20;;;;;;5007594;28;20518;-83
2022/06/17 09:49:00;;;;;;;6.15;1.65;;;30.30;54.20;;;;;;5004029;28;20050;-83
2022/06/17 09:51:30;;;;;;;5.45;1.95;;;29.80;55.70;;;;;;4988963;28;20089;-83
2022/06/17 09:54:13;;;;;;;1.73;1.40;;;29.30;57.40;;;;;;4988554;28;20023;-84
2022/06/17 09:56:49;;;;;;;4.03;1.45;;;29.10;54.20;;;;;;5004987;28;20026;-83
2022/06/17 09:59:38;;;;;;;5.07;1.70;;;30.20;54.80;;;;;;5001431;28;20460;-84
2022/06/17 10:02:27;;;;;;;2.60;1.60;;;31.00;54.20;;;;;;4989709;28;20417;-84
2022/06/17 10:04:55;;;;;;;3.72;1.50;;;31.70;53.70;;;;;;4993684;28;20038;-83
2022/06/17 10:08:08;;;;;;;1.67;1.15;;;32.10;52.70;;;;;;4993624;28;20057;-83
2022/06/17 10:11:00;;;;;;;6.07;1.20;;;30.70;51.90;;;;;;4992998;28;20046;-84
2022/06/17 10:13:31;;;;;;;3.08;1.30;;;29.40;53.40;;;;;;4992886;28;20041;-83
2022/06/17 10:18:59;;;;;;;2.55;1.30;;;27.70;55.10;;;;;;4995004;28;20041;-84
2022/06/17 10:21:27;;;;;;;4.18;1.33;;;27.50;56.70;;;;;;5010275;28;20395;-83
2022/06/17 10:24:15;;;;;;;3.13;1.85;;;27.70;56.70;;;;;;4995618;28;20422;-84
2022/06/17 10:27:18;;;;;;;5.20;1.40;;;28.40;55.50;;;;;;5010682;28;20042;-85
2022/06/17 10:30:02;;;;;;;3.47;1.20;;;29.00;54.40;;;;;;4993545;28;20046;-85
2022/06/17 10:32:32;;;;;;;2.10;1.48;;;29.30;55.40;;;;;;4998315;28;20483;-85
2022/06/17 10:35:01;;;;;;;2.13;1.52;;;29.60;55.70;;;;;;4993820;28;20061;-84
2022/06/17 10:37:30;;;;;;;4.30;1.50;;;29.30;55.60;;;;;;4993845;28;20038;-84
2022/06/17 10:40:00;;;;;;;2.03;1.65;;;29.50;55.70;;;;;;4993524;28;20018;-83
2022/06/17 10:42:27;;;;;;;5.87;1.20;;;29.80;55.10;;;;;;4997370;28;20023;-86
2022/06/17 10:44:59;;;;;;;5.45;1.40;;;29.80;53.70;;;;;;4992236;28;20276;-84
2022/06/17 10:47:52;;;;;;;3.28;1.13;;;28.70;54.20;;;;;;4993958;28;20559;-84
2022/06/17 10:50:29;;;;;;;2.72;1.40;;;28.90;54.70;;;;;;4993685;28;20030;-85
2022/06/17 10:53:19;;;;;;;9.75;2.83;;;29.00;54.30;;;;;;4977197;28;20040;-84
2022/06/17 10:55:55;;;;;;;3.30;1.40;;;28.70;55.80;;;;;;4992529;28;20387;-86
2022/06/17 10:58:31;;;;;;;6.43;1.40;;;28.80;57.20;;;;;;4993587;28;20468;-83
2022/06/17 11:01:03;;;;;;;5.05;1.30;;;28.50;54.70;;;;;;4992514;28;20034;-85
2022/06/17 11:03:28;;;;;;;5.60;1.58;;;28.10;56.00;;;;;;4990930;28;20045;-83
2022/06/17 11:06:00;;;;;;;3.35;1.35;;;28.20;56.60;;;;;;4992212;28;20031;-83
2022/06/17 11:08:32;;;;;;;4.22;1.40;;;28.50;55.00;;;;;;4992003;28;20069;-83
2022/06/17 11:13:48;;;;;;;2.47;1.20;;;29.00;55.70;;;;;;4988823;28;20301;-86
2022/06/17 11:16:20;;;;;;;2.60;1.50;;;28.50;54.20;;;;;;4990294;28;20042;-87
2022/06/17 11:19:05;;;;;;;3.20;1.30;;;28.90;55.80;;;;;;4974763;28;20387;-87
2022/06/17 11:21:52;;;;;;;2.33;1.17;;;29.10;54.50;;;;;;4991601;28;20052;-86
2022/06/17 11:24:40;;;;;;;2.78;1.95;;;29.00;54.60;;;;;;4989562;28;20038;-86
2022/06/17 11:27:12;;;;;;;1.80;1.27;;;29.20;53.60;;;;;;4992271;28;20391;-86
2022/06/17 11:29:46;;;;;;;4.10;1.58;;;28.80;55.30;;;;;;4991779;28;20034;-86
2022/06/17 11:32:33;;;;;;;4.82;1.55;;;28.80;55.40;;;;;;4991182;28;20034;-86
2022/06/17 11:35:27;;;;;;;2.45;1.42;;;28.50;56.00;;;;;;4989716;28;20027;-86
2022/06/17 11:37:54;;;;;;;3.88;1.70;;;29.10;55.20;;;;;;4973583;28;20034;-86
2022/06/17 11:40:25;;;;;;;7.40;1.50;;;29.30;54.30;;;;;;4989919;28;20034;-86
2022/06/17 11:42:57;;;;;;;5.53;1.80;;;28.90;53.50;;;;;;4984865;28;20030;-86
2022/06/17 11:45:28;;;;;;;4.18;1.45;;;29.10;53.60;;;;;;4989645;28;20061;-86
2022/06/17 11:47:59;;;;;;;1.95;1.20;;;29.70;53.20;;;;;;5014541;28;20042;-89
2022/06/17 11:50:30;;;;;;;2.65;1.23;;;29.70;53.40;;;;;;5006267;28;20487;-85
2022/06/17 11:53:01;;;;;;;;;;;29.90;55.20;;;;;;5009757;28;20033;-86
2022/06/17 11:55:32;;;;;;;3.70;1.30;;;30.10;52.40;;;;;;5006581;28;19912;-86
2022/06/17 11:57:58;;;;;;;4.55;1.52;;;30.30;54.20;;;;;;4994302;28;20483;-86
2022/06/17 12:00:49;;;;;;;2.15;1.50;;;30.30;52.00;;;;;;4995223;28;20061;-86
2022/06/17 12:03:19;;;;;;;4.03;1.50;;;29.70;51.70;;;;;;4994901;28;20038;-86
2022/06/17 12:05:58;;;;;;;2.65;1.48;;;29.10;53.30;;;;;;4994259;28;20057;-86
2022/06/17 12:08:42;;;;;;;6.45;1.35;;;29.30;54.80;;;;;;4992537;28;20088;-87
2022/06/17 12:11:12;;;;;;;4.60;1.40;;;29.90;54.10;;;;;;4992756;28;20040;-86
2022/06/17 12:13:54;;;;;;;2.25;1.20;;;30.20;55.30;;;;;;4992880;28;20085;-86
2022/06/17 12:16:23;;;;;;;8.88;7.97;;;30.30;54.40;;;;;;4992684;28;20030;-86
2022/06/17 12:19:11;;;;;;;2.50;1.83;;;30.90;52.10;;;;;;4993136;28;20018;-86
2022/06/17 12:21:59;;;;;;;1.42;1.13;;;30.70;52.10;;;;;;4993704;28;20057;-86
2022/06/17 12:24:37;;;;;;;3.53;1.50;;;30.70;52.40;;;;;;4992728;28;20037;-86
2022/06/17 12:27:21;;;;;;;3.03;1.48;;;29.90;52.10;;;;;;4992347;28;20317;-86
2022/06/17 12:29:59;;;;;;;3.80;1.48;;;30.20;53.00;;;;;;4993908;28;20038;-85
2022/06/17 12:32:33;;;;;;;4.45;1.10;;;30.80;51.90;;;;;;4993190;28;20089;-87
2022/06/17 12:35:05;;;;;;;3.28;1.35;;;31.30;50.20;;;;;;4992940;28;20180;-86
2022/06/17 12:37:47;;;;;;;4.10;1.20;;;31.50;49.70;;;;;;4993235;28;20034;-87
2022/06/17 12:40:23;;;;;;;1.15;1.08;;;32.00;49.30;;;;;;4992604;28;20038;-86
2022/06/17 12:43:11;;;;;;;3.10;1.30;;;32.60;49.90;;;;;;4996497;28;20034;-88
2022/06/17 12:46:03;;;;;;;3.35;1.20;;;33.10;49.00;;;;;;4977836;28;20034;-87
2022/06/17 12:48:49;;;;;;;4.53;1.10;;;32.70;48.70;;;;;;4992328;28;20049;-86
2022/06/17 12:55:01;;;;;;;6.40;1.30;;;31.90;48.80;;;;;;4996124;28;20074;-87
2022/06/17 12:57:33;;;;;;;6.38;1.98;;;31.80;49.70;;;;;;4976056;28;20133;-86
2022/06/17 13:00:07;;;;;;;9.18;1.27;;;31.90;49.00;;;;;;4975135;28;20128;-87
2022/06/17 13:02:56;;;;;;;5.53;2.15;;;32.20;49.50;;;;;;4991377;28;20049;-87
2022/06/17 13:05:34;;;;;;;2.85;1.23;;;32.50;49.70;;;;;;4992609;28;20042;-86
2022/06/17 13:08:23;;;;;;;4.60;1.27;;;32.30;47.60;;;;;;4992140;28;20097;-87
2022/06/17 13:10:48;;;;;;;2.28;1.23;;;32.70;49.70;;;;;;4991914;28;20042;-86
2022/06/17 13:13:33;;;;;;;1.92;1.20;;;32.70;49.50;;;;;;4992286;28;20038;-86
2022/06/17 13:16:04;;;;;;;3.95;1.23;;;33.20;48.70;;;;;;4992437;28;20030;-86
2022/06/17 13:18:45;;;;;;;3.75;1.20;;;32.90;48.60;;;;;;4993196;28;20042;-87
2022/06/17 13:21:26;;;;;;;2.42;1.50;;;32.70;47.40;;;;;;4993443;28;20070;-86
2022/06/17 13:24:15;;;;;;;5.85;1.10;;;33.10;48.50;;;;;;4991888;28;20053;-87
2022/06/17 13:27:15;;;;;;;34.22;3.97;;;33.00;46.90;;;;;;4992096;28;20042;-87
2022/06/17 13:30:01;;;;;;;8.32;1.45;;;33.20;47.40;;;;;;4992017;28;20134;-87
2022/06/17 13:32:35;;;;;;;3.88;1.30;;;33.00;47.20;;;;;;4991782;28;20053;-87
2022/06/17 13:35:15;;;;;;;2.22;1.38;;;32.70;49.20;;;;;;4975079;28;20096;-86
2022/06/17 13:38:05;;;;;;;1.92;1.10;;;32.60;47.30;;;;;;4993613;28;20042;-87
2022/06/17 13:40:47;;;;;;;4.13;1.20;;;32.10;47.60;;;;;;5003919;28;20050;-87
2022/06/17 13:43:52;;;;;;;1.90;1.00;;;32.10;48.00;;;;;;4995072;28;20030;-86
2022/06/17 13:46:30;;;;;;;3.03;1.17;;;32.80;46.80;;;;;;4998739;28;20034;-87
2022/06/17 13:49:08;;;;;;;2.55;1.38;;;32.70;48.50;;;;;;4982635;28;20046;-88
2022/06/17 13:51:51;;;;;;;5.30;1.23;;;32.20;49.10;;;;;;5007279;28;20034;-89
2022/06/17 13:54:53;;;;;;;6.38;1.70;;;32.60;50.00;;;;;;4998018;28;20121;-86
2022/06/17 13:57:32;;;;;;;1.48;1.10;;;33.00;48.60;;;;;;4992669;28;20034;-87